Akraberg, Faroe Islands

1:23 PM WEST on August 30, 2014 (GMT +0100)
Vagar | Change Station
CLOSE
Current Station
Airport
Location: Vagar,
Elevation: 279 ft
Nearby Weather Stations

Elev 279 ft 62.07 °N, 7.28 °W | Updated 3 minutes ago

Mostly Cloudy
Mostly Cloudy
57 °F
Feels Like 57 °F
N
12
Wind Variable Wind from ESE

Today
High -- | Low -- °F
--% Chance of Precip.
Yesterday
High -- | Low -- °F
Precip. -- in
6:12 AM 8:40 PM
Waxing Crescent, 21% visible
Pressure 29.86 in
Visibility 6.2 miles
Clouds Mostly Cloudy 1900 ft
Dew Point 54 °F
Humidity 88%
Rainfall 0.00 in
Snow Depth Not available.
UV 2 out of 12
Pollen Not available.
Air Quality Not available.
Flu Activity Not available.
METAR EKVG 301220Z AUTO 11010KT 9999NDV BKN019/// 14/12 Q1011 RMK BKN020/// WIND 850FT 13016KT

More Conditions Fewer Conditions

Pressure 29.86 in
Visibility 6.2 miles
Clouds Mostly Cloudy 1900 ft
Dew Point 54 °F
Humidity 88%
Rainfall 0.00 in
Snow Depth Not available.
UV 2 out of 12
Pollen Not available.
Air Quality Not available.
Flu Activity Not available.
METAR EKVG 301220Z AUTO 11010KT 9999NDV BKN019/// 14/12 Q1011 RMK BKN020/// WIND 850FT 13016KT

More Conditions Fewer Conditions

10-Day Weather Forecast

Almanac

Astronomy

Aug. 30, 2014 Rise Set
Actual Time 6:12 AM WEST 8:40 PM WEST
Civil Twilight 5:24 AM WEST 9:28 PM WEST
Nautical Twilight 4:19 AM WEST 10:32 PM WEST
Astronomical Twilight 2:42 AM WEST 12:04 AM WEST
Moon 12:14 PM WEST 9:34 PM WEST
Length of Visible Light 16h 04m
Length of Day
14h 28m
Tomorrow will be 5m 42s shorter.
Waxing Crescent, 21% of the Moon is Illuminated
Today
Waxing Crescent
Sep 2
First Quarter
Sep 8
Full
Sep 15
Last Quarter
Sep 24
New

Yesterday's Extremes

Country Highs Country Lows

Community

WunderPhotos

Upload Photos

1,748,500 photos uploaded!

WunderBlogs® & News

By Dr. Jeff Masters
Director of Meteorology, Weather Underground
By Kari Strenfel
Meteorologist, Weather Underground
By Christopher C. Burt
Weather Historian, Weather Underground
August 30, 2014
August 30, 2014
August 30, 2014

Nearby

Snow Depth

Not available.

Earthquake Activity

City Distance Mag. Time & Date
No recent earthquake activity has been reported nearby.
Minimum magnitude displayed is 2.5.

Coastal Water Temperatures

Place Temperature
No Stations Reporting

Nearby Weather Stations